Cranbrook, Canada
Current Conditions -  °F | °C
As of 11:00 PM on Tuesday 27 Jan 2015 (Local Time) from CYXC Reporting Station
Few Clouds Few Clouds  
Wind Chill: 30°   Ceiling: Unl
Heat Index: 30°   Visibility: 25mi
Dew Point: 25°   Wind: 2mph
Humidity: 80%   Direction: 360°N
Pressure: 29.98"   Gusts: NA
Location:  49.51°N, 115.77°W
Report Text: CYXC 280600Z 36002KT 25SM FEW120 M01/M04 A2998 RMK AC1 SLP186
Loading
Personal Weather Stations






























Interactive Weather Map New forecast layout! Learn more

10-Day Weather Forecast

Advertisements
Track Severe Weather on mobile